createdAt,value
2022-08-19T00:01:53.021Z,7.83
2022-08-19T00:04:22.048Z,7.63
2022-08-19T00:06:49.278Z,7.97
2022-08-19T00:09:17.443Z,8.30
2022-08-19T00:11:45.249Z,8.17
2022-08-19T00:14:13.419Z,8.23
2022-08-19T00:16:42.201Z,8.10
2022-08-19T00:19:09.890Z,7.67
2022-08-19T00:21:40.488Z,8.53
2022-08-19T00:24:09.029Z,8.50
2022-08-19T00:26:36.850Z,8.27
2022-08-19T00:29:04.876Z,8.30
2022-08-19T00:31:32.458Z,8.03
2022-08-19T00:34:00.071Z,8.43
2022-08-19T00:36:27.253Z,9.07
2022-08-19T00:38:54.416Z,8.60
2022-08-19T00:41:22.454Z,8.43
2022-08-19T00:44:08.025Z,8.43
2022-08-19T00:46:37.566Z,8.70
2022-08-19T00:49:08.296Z,9.13
2022-08-19T00:51:35.665Z,8.67
2022-08-19T00:54:03.438Z,8.40
2022-08-19T00:56:31.644Z,8.80
2022-08-19T00:59:00.011Z,8.37
2022-08-19T01:01:27.359Z,8.83
2022-08-19T01:03:57.759Z,8.43
2022-08-19T01:06:26.015Z,8.83
2022-08-19T01:08:53.326Z,9.13
2022-08-19T01:11:20.493Z,8.13
2022-08-19T01:13:50.123Z,9.20
2022-08-19T01:16:18.313Z,8.47
2022-08-19T01:18:45.460Z,9.00
2022-08-19T01:21:18.205Z,8.77
2022-08-19T01:23:46.221Z,8.90
2022-08-19T01:26:15.223Z,9.07
2022-08-19T01:28:43.161Z,8.80
2022-08-19T01:31:12.530Z,9.27
2022-08-19T01:33:55.682Z,8.83
2022-08-19T01:36:28.541Z,9.80
2022-08-19T01:38:55.899Z,9.57
2022-08-19T01:41:24.565Z,9.80
2022-08-19T01:44:13.627Z,9.37
2022-08-19T01:46:40.291Z,9.77
2022-08-19T01:49:09.152Z,8.77
2022-08-19T01:51:39.981Z,9.27
2022-08-19T01:54:07.861Z,8.77
2022-08-19T01:56:35.308Z,9.30
2022-08-19T01:59:06.181Z,9.00
2022-08-19T02:01:33.638Z,9.50
2022-08-19T02:04:01.767Z,10.13
2022-08-19T02:06:29.491Z,9.50
2022-08-19T02:08:57.555Z,8.93
2022-08-19T02:11:34.989Z,9.43
2022-08-19T02:14:03.137Z,9.50
2022-08-19T02:16:31.404Z,9.53
2022-08-19T02:19:01.458Z,9.30
2022-08-19T02:21:29.459Z,9.50
2022-08-19T02:23:57.394Z,10.07
2022-08-19T02:26:24.611Z,9.43
2022-08-19T02:28:51.775Z,10.30
2022-08-19T02:31:20.595Z,9.87
2022-08-19T02:33:48.158Z,9.27
2022-08-19T02:36:16.483Z,9.67
2022-08-19T02:38:55.130Z,9.50
2022-08-19T02:41:27.832Z,9.43
2022-08-19T02:44:26.524Z,9.57
2022-08-19T02:46:45.045Z,10.43
2022-08-19T02:49:12.306Z,9.77
2022-08-19T02:51:41.439Z,10.20
2022-08-19T02:54:08.947Z,9.77
2022-08-19T02:56:36.969Z,10.57
2022-08-19T08:49:21.924Z,8.07
2022-08-19T08:54:20.056Z,8.10
2022-08-19T08:56:48.249Z,8.40
2022-08-19T08:59:18.774Z,7.60
2022-08-19T09:01:46.297Z,8.77
2022-08-19T09:04:14.344Z,8.37
2022-08-19T09:06:50.805Z,8.00
2022-08-19T09:09:35.947Z,8.03
2022-08-19T09:12:13.040Z,8.47
2022-08-19T09:14:51.229Z,7.87
2022-08-19T09:17:20.160Z,8.40
2022-08-19T09:19:52.345Z,8.70
2022-08-19T09:22:25.698Z,9.30
2022-08-19T09:24:53.504Z,8.63
2022-08-19T09:27:21.811Z,9.50
2022-08-19T09:29:49.909Z,9.23
2022-08-19T09:32:26.160Z,9.20
2022-08-19T09:34:55.701Z,9.10
2022-08-19T09:37:23.379Z,9.10
2022-08-19T09:39:52.526Z,9.20
2022-08-19T14:41:23.427Z,13.80
2022-08-19T14:43:51.978Z,13.43
2022-08-19T14:46:21.509Z,13.30
2022-08-19T14:48:50.715Z,13.53
2022-08-19T14:51:20.977Z,13.77
2022-08-19T14:53:51.015Z,14.53
2022-08-19T14:56:20.095Z,14.43
2022-08-19T14:58:47.369Z,13.97
2022-08-19T15:01:15.435Z,13.83
2022-08-19T15:03:42.697Z,13.67
2022-08-19T15:06:12.848Z,13.77
2022-08-19T15:08:41.907Z,13.23
2022-08-19T15:11:10.810Z,12.73
2022-08-19T15:13:38.164Z,14.33
2022-08-19T15:16:05.616Z,13.17
2022-08-19T15:18:33.564Z,14.80
2022-08-19T15:21:00.737Z,13.73
2022-08-19T15:23:27.867Z,13.40
2022-08-19T15:25:55.950Z,13.67
2022-08-19T15:28:24.468Z,14.50
2022-08-19T15:30:51.643Z,13.60
2022-08-19T15:33:21.031Z,15.40
2022-08-19T15:35:51.557Z,14.23
2022-08-19T15:38:22.273Z,14.37
2022-08-19T15:40:50.229Z,13.67
2022-08-19T15:43:18.787Z,15.40
2022-08-19T15:45:49.254Z,13.50
2022-08-19T15:48:16.771Z,15.03
2022-08-19T15:50:43.929Z,13.53
2022-08-19T15:53:11.574Z,14.20
2022-08-19T15:55:44.249Z,13.80
2022-08-19T20:35:12.439Z,11.53
2022-08-19T20:37:39.974Z,12.60
2022-08-19T20:40:09.746Z,12.43
2022-08-19T20:42:38.217Z,11.37
2022-08-19T20:45:07.359Z,11.90
2022-08-19T20:47:49.074Z,12.20
2022-08-19T20:50:17.263Z,12.47
2022-08-19T20:52:44.832Z,12.80
2022-08-19T20:55:21.992Z,11.40
2022-08-19T20:57:49.198Z,12.10
2022-08-19T21:00:16.755Z,11.80
2022-08-19T21:02:43.903Z,12.13
2022-08-19T21:05:11.197Z,12.07
2022-08-19T21:07:39.131Z,12.23
2022-08-19T21:10:07.376Z,12.17
2022-08-19T21:12:34.754Z,11.87
2022-08-19T21:15:01.907Z,11.93
2022-08-19T21:17:29.041Z,11.47
2022-08-19T21:19:56.207Z,11.53
2022-08-19T21:22:23.614Z,11.33
2022-08-19T21:24:50.828Z,10.93
2022-08-19T21:27:17.985Z,11.77
2022-08-19T21:29:45.289Z,11.97
2022-08-19T21:32:14.210Z,11.33
2022-08-19T21:34:43.960Z,10.73
2022-08-19T21:37:25.397Z,11.27
2022-08-19T21:39:53.499Z,11.63
2022-08-19T21:42:21.119Z,10.83
2022-08-19T21:44:48.320Z,10.83
2022-08-19T21:47:15.623Z,10.93
2022-08-19T21:49:43.025Z,11.40
2022-08-19T21:52:10.203Z,11.27
2022-08-19T21:54:38.177Z,10.73
